Time;durP1;ratioP1;P1;durP2;ratioP2;P2;SDS_P1;SDS_P2;PMS_P1;PMS_P2;Temp;Humidity;BMP_temperature;BMP_pressure;BME280_temperature;BME280_humidity;BME280_pressure;Samples;Min_cycle;Max_cycle;Signal;HPM_P1;HPM_P2
2022/09/08 00:00:13;;;;;;;;;;;20.80;99.90;;;;;;4143389;28;19921;-67
2022/09/08 00:02:14;;;;;;;;;;;20.80;99.90;;;;;;4142514;28;19913;-67
2022/09/08 00:04:14;;;;;;;;;;;20.80;99.90;;;;;;4143745;28;20008;-67
2022/09/08 00:06:16;;;;;;;;;;;20.80;99.90;;;;;;4143527;28;19964;-67
2022/09/08 00:08:20;;;;;;;;;;;20.80;99.90;;;;;;4141497;28;20008;-67
2022/09/08 00:10:21;;;;;;;;;;;20.80;99.90;;;;;;4142826;28;20956;-66
2022/09/08 00:12:22;;;;;;;;;;;20.90;99.90;;;;;;4144050;28;19909;-67
2022/09/08 00:14:23;;;;;;;;;;;20.90;99.90;;;;;;4142318;28;19921;-67
2022/09/08 00:16:24;;;;;;;;;;;20.80;99.90;;;;;;4143402;28;19921;-68
2022/09/08 00:18:24;;;;;;;;;;;20.80;99.90;;;;;;4143690;28;19909;-67
2022/09/08 00:20:25;;;;;;;;;;;20.90;99.90;;;;;;4145781;28;19940;-67
2022/09/08 00:22:25;;;;;;;;;;;20.80;99.90;;;;;;4143259;28;19925;-67
2022/09/08 00:24:26;;;;;;;;;;;20.80;99.90;;;;;;4144290;28;19916;-68
2022/09/08 00:26:26;;;;;;;;;;;20.80;99.90;;;;;;4143124;28;20273;-67
2022/09/08 00:28:27;;;;;;;;;;;20.80;99.90;;;;;;4143934;28;19940;-67
2022/09/08 00:30:27;;;;;;;;;;;20.70;99.90;;;;;;4140988;28;19917;-67
2022/09/08 00:32:28;;;;;;;;;;;20.70;99.90;;;;;;4143861;28;19909;-67
2022/09/08 00:34:28;;;;;;;;;;;20.60;99.90;;;;;;4143615;28;20432;-67
2022/09/08 00:36:30;;;;;;;;;;;20.60;99.90;;;;;;4146129;28;19910;-67
2022/09/08 00:38:30;;;;;;;;;;;20.60;99.90;;;;;;4144908;28;19921;-67
2022/09/08 00:40:31;;;;;;;;;;;20.60;99.90;;;;;;4144991;28;19921;-68
2022/09/08 00:42:31;;;;;;;;;;;20.60;99.90;;;;;;4146618;28;20311;-67
2022/09/08 00:44:32;;;;;;;;;;;20.60;99.90;;;;;;4146705;28;20012;-68
2022/09/08 00:46:52;;;;;;;;;;;20.60;99.90;;;;;;4146102;28;19914;-67
2022/09/08 00:48:55;;;;;;;;;;;20.60;99.90;;;;;;4141244;28;19909;-67
2022/09/08 00:50:58;;;;;;;;;;;20.60;99.90;;;;;;4145130;28;20382;-67
2022/09/08 00:53:01;;;;;;;;;;;20.60;99.90;;;;;;4146550;28;20013;-67
2022/09/08 00:55:02;;;;;;;;;;;20.60;99.90;;;;;;4143745;28;19909;-67
2022/09/08 00:57:03;;;;;;;;;;;20.60;99.90;;;;;;4143329;28;19917;-67
2022/09/08 00:59:04;;;;;;;;;;;20.60;99.90;;;;;;4145906;28;19917;-66
2022/09/08 01:01:05;;;;;;;;;;;20.60;99.90;;;;;;4143939;28;19963;-66
2022/09/08 01:03:07;;;;;;;;;;;20.60;99.90;;;;;;4146037;28;20372;-68
2022/09/08 01:05:09;;;;;;;;;;;20.60;99.90;;;;;;4145789;28;19988;-67
2022/09/08 01:14:16;;;;;;;;;;;20.60;99.90;;;;;;4146031;28;19995;-67
2022/09/08 01:16:17;;;;;;;;;;;20.60;99.90;;;;;;4145720;28;19917;-67
2022/09/08 01:18:17;;;;;;;;;;;20.60;99.90;;;;;;4146073;28;20353;-67
2022/09/08 01:20:19;;;;;;;;;;;20.60;99.90;;;;;;4146164;28;19996;-67
2022/09/08 01:22:29;;;;;;;;;;;20.70;99.90;;;;;;4144688;28;20339;-67
2022/09/08 01:24:49;;;;;;;;;;;20.60;99.90;;;;;;4145470;28;20225;-67
2022/09/08 01:27:05;;;;;;;;;;;20.60;99.90;;;;;;4142892;28;20403;-67
2022/09/08 01:29:07;;;;;;;;;;;20.60;99.90;;;;;;4147318;28;20109;-67
2022/09/08 01:31:08;;;;;;;;;;;20.60;99.90;;;;;;4145387;28;19979;-67
2022/09/08 01:33:09;;;;;;;;;;;20.60;99.90;;;;;;4144919;28;19913;-67
2022/09/08 01:35:09;;;;;;;;;;;20.60;99.90;;;;;;4143525;28;19909;-67
2022/09/08 01:37:10;;;;;;;;;;;20.60;99.90;;;;;;4145548;28;19916;-66
2022/09/08 01:39:11;;;;;;;;;;;20.60;99.90;;;;;;4147354;28;19909;-67
2022/09/08 01:41:13;;;;;;;;;;;20.60;99.90;;;;;;4143633;28;19928;-67
2022/09/08 01:43:14;;;;;;;;;;;20.60;99.90;;;;;;4143791;28;19909;-67
2022/09/08 01:45:14;;;;;;;;;;;20.50;99.90;;;;;;4144152;28;19916;-67
2022/09/08 01:47:15;;;;;;;;;;;20.50;99.90;;;;;;4144154;28;20573;-67
2022/09/08 01:49:15;;;;;;;;;;;20.50;99.90;;;;;;4143622;28;19917;-67
2022/09/08 01:51:15;;;;;;;;;;;20.40;99.90;;;;;;4143209;28;19909;-67
2022/09/08 01:53:16;;;;;;;;;;;20.50;99.90;;;;;;4145611;28;20312;-67
2022/09/08 01:55:17;;;;;;;;;;;20.50;99.90;;;;;;4144072;28;19976;-67
2022/09/08 01:57:18;;;;;;;;;;;20.50;99.90;;;;;;4145506;28;20353;-67
2022/09/08 01:59:18;;;;;;;;;;;20.50;99.90;;;;;;4143511;28;19916;-66
2022/09/08 02:01:18;;;;;;;;;;;20.50;99.90;;;;;;4144328;28;19914;-67
2022/09/08 02:03:19;;;;;;;;;;;20.50;99.90;;;;;;4145306;28;19917;-67
2022/09/08 02:05:20;;;;;;;;;;;20.50;99.90;;;;;;4144713;28;20013;-66
2022/09/08 02:07:20;;;;;;;;;;;20.50;99.90;;;;;;4145256;28;19913;-67
2022/09/08 02:09:21;;;;;;;;;;;20.60;99.90;;;;;;4141861;28;19958;-66
2022/09/08 02:11:21;;;;;;;;;;;20.50;99.90;;;;;;4145871;28;19917;-67
2022/09/08 02:13:22;;;;;;;;;;;20.50;99.90;;;;;;4144898;28;20012;-67
2022/09/08 02:15:23;;;;;;;;;;;20.50;99.90;;;;;;4144201;28;20008;-66
2022/09/08 02:17:23;;;;;;;;;;;20.60;99.90;;;;;;4143996;28;19932;-67
2022/09/08 02:19:24;;;;;;;;;;;20.50;99.90;;;;;;4140505;28;19928;-67
2022/09/08 02:21:25;;;;;;;;;;;20.50;99.90;;;;;;4144955;28;19913;-67
2022/09/08 02:23:25;;;;;;;;;;;20.50;99.90;;;;;;4144601;28;19916;-66
2022/09/08 02:25:26;;;;;;;;;;;20.50;99.90;;;;;;4144462;28;19914;-67
2022/09/08 02:27:26;;;;;;;;;;;20.40;99.90;;;;;;4145429;28;20399;-67
2022/09/08 02:29:26;;;;;;;;;;;20.40;99.90;;;;;;4145242;28;19928;-67
2022/09/08 02:31:27;;;;;;;;;;;20.40;99.90;;;;;;4142752;28;20004;-67
2022/09/08 02:33:29;;;;;;;;;;;20.40;99.90;;;;;;4145082;28;19914;-67
2022/09/08 02:35:30;;;;;;;;;;;20.40;99.90;;;;;;4142944;28;20486;-67
2022/09/08 02:37:30;;;;;;;;;;;20.40;99.90;;;;;;4145393;28;19913;-67
2022/09/08 02:39:31;;;;;;;;;;;20.40;99.90;;;;;;4139012;28;19959;-66
2022/09/08 02:41:31;;;;;;;;;;;20.30;99.90;;;;;;4144501;28;19917;-67
2022/09/08 02:43:33;;;;;;;;;;;20.30;99.90;;;;;;4144881;28;20010;-67
2022/09/08 02:45:37;;;;;;;;;;;20.30;99.90;;;;;;4142937;28;20411;-67
2022/09/08 02:47:37;;;;;;;;;;;20.20;99.90;;;;;;4143898;28;19952;-66
2022/09/08 02:49:38;;;;;;;;;;;20.10;99.90;;;;;;4145376;28;19910;-66
2022/09/08 02:51:38;;;;;;;;;;;20.10;99.90;;;;;;4144792;28;20388;-67
2022/09/08 02:53:40;;;;;;;;;;;20.00;99.90;;;;;;4144834;28;19914;-67
2022/09/08 02:55:41;;;;;;;;;;;20.00;99.90;;;;;;4143787;28;19915;-67
2022/09/08 02:57:41;;;;;;;;;;;19.90;99.90;;;;;;4144533;28;19945;-67
2022/09/08 02:59:42;;;;;;;;;;;19.90;99.90;;;;;;4143900;28;19988;-66
2022/09/08 03:01:43;;;;;;;;;;;19.90;99.90;;;;;;4143710;28;19992;-67
2022/09/08 03:03:43;;;;;;;;;;;19.80;99.90;;;;;;4144754;28;19916;-67
2022/09/08 03:05:44;;;;;;;;;;;19.80;99.90;;;;;;4142802;28;20345;-67
2022/09/08 03:07:44;;;;;;;;;;;19.80;99.90;;;;;;4144494;28;19960;-67
2022/09/08 03:09:46;;;;;;;;;;;19.80;99.90;;;;;;4143661;28;20328;-66
2022/09/08 03:11:46;;;;;;;;;;;19.90;99.90;;;;;;4144689;28;19909;-66
2022/09/08 03:13:47;;;;;;;;;;;19.90;99.90;;;;;;4143816;28;19921;-66
2022/09/08 03:15:48;;;;;;;;;;;19.90;99.90;;;;;;4143974;28;20426;-67
2022/09/08 03:17:49;;;;;;;;;;;20.00;99.90;;;;;;4144712;28;19964;-66
2022/09/08 03:19:50;;;;;;;;;;;20.00;99.90;;;;;;4140152;28;19918;-67
2022/09/08 03:21:50;;;;;;;;;;;20.00;99.90;;;;;;4142421;28;20028;-66
2022/09/08 03:23:50;;;;;;;;;;;20.10;99.90;;;;;;4144701;28;20422;-67
2022/09/08 03:25:51;;;;;;;;;;;20.00;99.90;;;;;;4142370;28;19913;-66
2022/09/08 03:27:52;;;;;;;;;;;20.10;99.90;;;;;;4141534;28;19910;-66
2022/09/08 03:29:53;;;;;;;;;;;20.10;99.90;;;;;;4141937;28;20474;-67
2022/09/08 03:31:54;;;;;;;;;;;20.10;99.90;;;;;;4142588;28;20310;-67
2022/09/08 03:33:55;;;;;;;;;;;20.10;99.90;;;;;;4144083;28;20012;-67
2022/09/08 03:35:59;;;;;;;;;;;20.00;99.90;;;;;;4143178;28;20328;-69
2022/09/08 03:37:59;;;;;;;;;;;20.10;99.90;;;;;;4142363;28;19916;-69
2022/09/08 03:40:00;;;;;;;;;;;20.10;99.90;;;;;;4141856;28;20300;-69
2022/09/08 03:42:00;;;;;;;;;;;20.00;99.90;;;;;;4142544;28;19988;-69
2022/09/08 03:44:01;;;;;;;;;;;20.00;99.90;;;;;;4144061;28;20000;-69
2022/09/08 03:46:05;;;;;;;;;;;19.90;99.90;;;;;;4143259;28;19917;-69
2022/09/08 03:48:06;;;;;;;;;;;19.90;99.90;;;;;;4143948;28;19966;-69
2022/09/08 03:50:06;;;;;;;;;;;19.80;99.90;;;;;;4140787;28;19917;-68
2022/09/08 03:52:08;;;;;;;;;;;19.80;99.90;;;;;;4143080;28;19918;-68
2022/09/08 03:56:27;;;;;;;;;;;19.70;99.90;;;;;;4142686;28;20562;-68
2022/09/08 03:58:28;;;;;;;;;;;19.60;99.90;;;;;;4139777;28;19963;-68
2022/09/08 04:00:28;;;;;;;;;;;19.50;99.90;;;;;;4142985;28;20356;-68
2022/09/08 04:02:30;;;;;;;;;;;19.50;99.90;;;;;;4142693;28;19917;-68
2022/09/08 04:04:30;;;;;;;;;;;19.50;99.90;;;;;;4141795;28;19921;-68
2022/09/08 04:06:31;;;;;;;;;;;19.50;99.90;;;;;;4141832;28;19910;-67
2022/09/08 04:08:32;;;;;;;;;;;19.50;99.90;;;;;;4142623;28;20015;-67
2022/09/08 04:10:32;;;;;;;;;;;19.40;99.90;;;;;;4145602;28;19928;-68
2022/09/08 04:12:34;;;;;;;;;;;19.40;99.90;;;;;;4146899;28;20265;-68
2022/09/08 04:14:34;;;;;;;;;;;19.40;99.90;;;;;;4147059;28;19914;-68
2022/09/08 04:16:35;;;;;;;;;;;19.30;99.90;;;;;;4138854;28;20365;-68
2022/09/08 04:18:36;;;;;;;;;;;19.30;99.90;;;;;;4143594;28;20336;-68
2022/09/08 04:20:38;;;;;;;;;;;19.20;99.90;;;;;;4143351;28;19917;-68
2022/09/08 04:22:38;;;;;;;;;;;19.20;99.90;;;;;;4145548;28;19910;-69
2022/09/08 04:24:39;;;;;;;;;;;19.20;99.90;;;;;;4145113;28;19960;-70
2022/09/08 04:26:40;;;;;;;;;;;19.20;99.90;;;;;;4144731;28;19918;-68
2022/09/08 04:28:41;;;;;;;;;;;19.20;99.90;;;;;;4145697;28;19996;-70
2022/09/08 04:30:42;;;;;;;;;;;19.20;99.90;;;;;;4139880;28;20376;-68
2022/09/08 04:32:42;;;;;;;;;;;19.10;99.90;;;;;;4144415;28;19917;-68
2022/09/08 04:34:43;;;;;;;;;;;19.10;99.90;;;;;;4145882;28;19920;-69
2022/09/08 04:36:44;;;;;;;;;;;19.10;99.90;;;;;;4144441;28;19917;-68
2022/09/08 04:38:44;;;;;;;;;;;19.00;99.90;;;;;;4146077;28;19917;-69
2022/09/08 04:40:45;;;;;;;;;;;19.00;99.90;;;;;;4145088;28;19916;-68
2022/09/08 04:42:45;;;;;;;;;;;19.00;99.90;;;;;;4144339;28;20327;-69
2022/09/08 04:44:46;;;;;;;;;;;19.00;99.90;;;;;;4144893;28;19924;-68
2022/09/08 04:46:47;;;;;;;;;;;19.00;99.90;;;;;;4143714;28;19936;-68
2022/09/08 04:48:47;;;;;;;;;;;19.00;99.90;;;;;;4142900;28;19909;-67
2022/09/08 04:50:52;;;;;;;;;;;19.00;99.90;;;;;;4142531;28;20407;-68
2022/09/08 04:52:52;;;;;;;;;;;19.00;99.90;;;;;;4145237;28;19916;-68
2022/09/08 04:54:53;;;;;;;;;;;18.90;99.90;;;;;;4145704;28;20012;-68
2022/09/08 04:56:53;;;;;;;;;;;18.90;99.90;;;;;;4144237;28;19916;-68
2022/09/08 04:58:54;;;;;;;;;;;18.90;99.90;;;;;;4144548;28;19924;-68
2022/09/08 05:01:01;;;;;;;;;;;18.90;99.90;;;;;;4142875;28;20839;-68
2022/09/08 05:03:02;;;;;;;;;;;18.90;99.90;;;;;;4144702;28;20364;-68
2022/09/08 05:05:03;;;;;;;;;;;18.90;99.90;;;;;;4143492;28;19921;-71
2022/09/08 05:07:03;;;;;;;;;;;18.90;99.90;;;;;;4142807;28;19913;-68
2022/09/08 05:09:04;;;;;;;;;;;18.90;99.90;;;;;;4143498;28;19955;-69
2022/09/08 05:11:05;;;;;;;;;;;18.90;99.90;;;;;;4143078;28;19988;-73
2022/09/08 05:13:05;;;;;;;;;;;18.80;99.90;;;;;;4145222;28;19909;-73
2022/09/08 05:15:06;;;;;;;;;;;18.80;99.90;;;;;;4140898;28;19921;-73
2022/09/08 05:17:07;;;;;;;;;;;18.90;99.90;;;;;;4141651;28;20384;-74
2022/09/08 05:19:07;;;;;;;;;;;18.90;99.90;;;;;;4142798;28;19928;-74
2022/09/08 05:21:08;;;;;;;;;;;18.90;99.90;;;;;;4142671;28;20419;-74
2022/09/08 05:23:09;;;;;;;;;;;18.90;99.90;;;;;;4142309;28;19909;-73
2022/09/08 05:25:09;;;;;;;;;;;18.90;99.90;;;;;;4144052;28;19949;-73
2022/09/08 05:27:10;;;;;;;;;;;18.90;99.90;;;;;;4142850;28;20013;-70
2022/09/08 05:29:10;;;;;;;;;;;18.90;99.90;;;;;;4141449;28;20373;-72
2022/09/08 05:31:13;;;;;;;;;;;18.80;99.90;;;;;;4142011;28;19913;-73
2022/09/08 05:33:13;;;;;;;;;;;18.80;99.90;;;;;;4145417;28;19913;-73
2022/09/08 05:35:14;;;;;;;;;;;18.80;99.90;;;;;;4140356;28;19917;-72
2022/09/08 05:37:14;;;;;;;;;;;18.80;99.90;;;;;;4142695;28;19909;-76
2022/09/08 05:39:15;;;;;;;;;;;18.80;99.90;;;;;;4141031;28;19971;-73
2022/09/08 05:41:15;;;;;;;;;;;18.80;99.90;;;;;;4138267;28;19917;-72
2022/09/08 05:43:17;;;;;;;;;;;18.80;99.90;;;;;;4141511;28;19917;-74
2022/09/08 05:45:17;;;;;;;;;;;18.80;99.90;;;;;;4141052;28;19913;-72
2022/09/08 05:47:18;;;;;;;;;;;18.70;99.90;;;;;;4142561;28;19910;-73
2022/09/08 05:49:18;;;;;;;;;;;18.80;99.90;;;;;;4142403;28;20016;-74
2022/09/08 05:51:19;;;;;;;;;;;18.70;99.90;;;;;;4140902;28;20570;-74
2022/09/08 05:53:20;;;;;;;;;;;18.80;99.90;;;;;;4137040;28;19924;-73
2022/09/08 05:55:40;;;;;;;;;;;18.70;99.90;;;;;;4129754;28;19932;-72
2022/09/08 05:57:41;;;;;;;;;;;18.80;99.90;;;;;;4124219;28;19949;-72
2022/09/08 05:59:41;;;;;;;;;;;18.80;99.90;;;;;;4141288;28;20201;-71
2022/09/08 06:01:42;;;;;;;;;;;18.80;99.90;;;;;;4142838;28;19909;-72
2022/09/08 06:03:43;;;;;;;;;;;18.80;99.90;;;;;;4142024;28;20400;-73
2022/09/08 06:05:43;;;;;;;;;;;18.80;99.90;;;;;;4139625;28;20275;-72
2022/09/08 06:07:44;;;;;;;;;;;18.80;99.90;;;;;;4139688;28;20537;-72
2022/09/08 06:09:44;;;;;;;;;;;18.80;99.90;;;;;;4142177;28;19995;-72
2022/09/08 06:11:45;;;;;;;;;;;18.80;99.90;;;;;;4142195;28;19971;-70
2022/09/08 06:13:45;;;;;;;;;;;18.80;99.90;;;;;;4142543;28;19996;-72
2022/09/08 06:15:46;;;;;;;;;;;18.80;99.90;;;;;;4141903;28;19909;-73
2022/09/08 06:17:46;;;;;;;;;;;18.80;99.90;;;;;;4140207;28;20351;-73
2022/09/08 06:19:47;;;;;;;;;;;18.80;99.90;;;;;;4142754;28;20004;-74
2022/09/08 06:21:47;;;;;;;;;;;18.80;99.90;;;;;;4142199;28;19917;-75
2022/09/08 06:23:49;;;;;;;;;;;18.80;99.90;;;;;;4139814;28;19909;-73
2022/09/08 06:25:49;;;;;;;;;;;18.80;99.90;;;;;;4140933;28;19925;-74
2022/09/08 06:27:59;;;;;;;;;;;18.80;99.90;;;;;;4140803;28;20376;-74
2022/09/08 06:30:13;;;;;;;;;;;18.80;99.90;;;;;;4142047;28;20431;-74
2022/09/08 06:32:19;;;;;;;;;;;18.70;99.90;;;;;;4143401;28;19953;-75
2022/09/08 06:34:23;;;;;;;;;;;18.70;99.90;;;;;;4142436;28;19974;-73
2022/09/08 06:36:25;;;;;;;;;;;18.70;99.90;;;;;;4140378;28;20419;-75
2022/09/08 06:38:30;;;;;;;;;;;18.70;99.90;;;;;;4142893;28;19971;-73
2022/09/08 06:40:42;;;;;;;;;;;18.70;99.90;;;;;;4143600;28;19918;-73
2022/09/08 06:42:53;;;;;;;;;;;18.80;99.90;;;;;;4140312;28;19916;-75
2022/09/08 06:44:54;;;;;;;;;;;18.80;99.90;;;;;;4143489;28;19909;-74
2022/09/08 06:46:56;;;;;;;;;;;18.80;99.90;;;;;;4142593;28;19909;-74
2022/09/08 06:48:57;;;;;;;;;;;18.80;99.90;;;;;;4142307;28;19923;-72
2022/09/08 06:51:33;;;;;;;;;;;18.80;99.90;;;;;;4140778;28;19918;-73
2022/09/08 06:53:52;;;;;;;;;;;18.80;99.90;;;;;;4102570;28;20369;-77
2022/09/08 06:56:04;;;;;;;;;;;18.80;99.90;;;;;;4141084;28;20304;-77
2022/09/08 06:58:20;;;;;;;;;;;18.80;99.90;;;;;;4143212;28;19949;-75
2022/09/08 07:00:23;;;;;;;;;;;18.70;99.90;;;;;;4138585;28;19913;-77
2022/09/08 07:02:23;;;;;;;;;;;18.70;99.90;;;;;;4142115;28;19913;-77
2022/09/08 07:04:27;;;;;;;;;;;18.70;99.90;;;;;;4136283;28;19940;-77
2022/09/08 07:06:35;;;;;;;;;;;18.70;99.90;;;;;;4140544;28;19980;-76
2022/09/08 07:08:50;;;;;;;;;;;18.70;99.90;;;;;;4142539;28;19963;-76
2022/09/08 07:11:04;;;;;;;;;;;18.60;99.90;;;;;;4141926;28;19917;-76
2022/09/08 07:13:13;;;;;;;;;;;18.60;99.90;;;;;;4141634;28;20168;-76
2022/09/08 07:15:20;;;;;;;;;;;18.60;99.90;;;;;;4138571;28;20274;-76
2022/09/08 07:17:29;;;;;;;;;;;18.60;99.90;;;;;;4139276;28;19987;-76
2022/09/08 07:19:49;;;;;;;;;;;18.60;99.90;;;;;;4138042;28;19917;-77
2022/09/08 07:21:53;;;;;;;;;;;18.60;99.90;;;;;;4137365;28;19951;-77
2022/09/08 07:23:58;;;;;;;;;;;18.60;99.90;;;;;;4140782;28;20001;-75
2022/09/08 07:26:04;;;;;;;;;;;18.70;99.90;;;;;;4140358;28;20063;-76
2022/09/08 07:28:09;;;;;;;;;;;18.70;99.90;;;;;;4141445;28;19921;-75
2022/09/08 07:30:16;;;;;;;;;;;18.70;99.90;;;;;;4138416;28;20460;-74
2022/09/08 07:32:29;;;;;;;;;;;18.70;99.90;;;;;;4138828;28;19947;-73
2022/09/08 07:34:34;;;;;;;;;;;18.70;99.90;;;;;;4141109;28;19921;-75
2022/09/08 07:36:38;;;;;;;;;;;18.70;99.90;;;;;;4140545;28;19918;-71
2022/09/08 07:38:47;;;;;;;;;;;18.70;99.90;;;;;;4141494;28;19968;-70
2022/09/08 07:40:50;;;;;;;;;;;18.70;99.90;;;;;;4141962;28;19931;-75
2022/09/08 07:42:54;;;;;;;;;;;18.70;99.90;;;;;;4139362;28;19918;-73
2022/09/08 07:44:59;;;;;;;;;;;18.70;99.90;;;;;;4138076;28;20357;-75
2022/09/08 07:47:11;;;;;;;;;;;18.70;99.90;;;;;;4144156;28;19913;-75
2022/09/08 07:49:20;;;;;;;;;;;18.70;99.90;;;;;;4141997;28;20282;-74
2022/09/08 07:51:24;;;;;;;;;;;18.70;99.90;;;;;;4142725;28;19955;-75
2022/09/08 07:53:33;;;;;;;;;;;18.70;99.90;;;;;;4143520;28;20387;-77
2022/09/08 07:55:37;;;;;;;;;;;18.60;99.90;;;;;;4144013;28;19913;-76
2022/09/08 07:57:44;;;;;;;;;;;18.60;99.90;;;;;;4142431;28;19917;-74
2022/09/08 07:59:53;;;;;;;;;;;18.60;99.90;;;;;;4143179;28;19920;-75
2022/09/08 08:02:12;;;;;;;;;;;18.60;99.90;;;;;;4142982;28;20601;-75
2022/09/08 08:04:18;;;;;;;;;;;18.60;99.90;;;;;;4142774;28;20376;-76
2022/09/08 08:06:40;;;;;;;;;;;18.60;99.90;;;;;;4141434;28;19924;-75
2022/09/08 08:09:00;;;;;;;;;;;18.60;99.90;;;;;;4145253;28;19909;-81
2022/09/08 08:11:18;;;;;;;;;;;18.60;99.90;;;;;;4139039;28;19924;-73
2022/09/08 08:13:18;;;;;;;;;;;18.50;99.90;;;;;;4143732;28;19917;-69
2022/09/08 08:15:26;;;;;;;;;;;18.50;99.90;;;;;;4143138;28;20470;-76
2022/09/08 08:17:30;;;;;;;;;;;18.50;99.90;;;;;;4143845;28;19917;-76
2022/09/08 08:19:30;;;;;;;;;;;18.60;99.90;;;;;;4144428;28;19913;-76
2022/09/08 08:21:37;;;;;;;;;;;18.60;99.90;;;;;;4142152;28;20383;-76
2022/09/08 08:23:40;;;;;;;;;;;18.70;99.90;;;;;;4141420;28;19932;-76
2022/09/08 08:25:52;;;;;;;;;;;18.70;99.90;;;;;;4142967;28;19909;-73
2022/09/08 08:28:11;;;;;;;;;;;18.70;99.90;;;;;;4142693;28;19909;-75
2022/09/08 08:30:21;;;;;;;;;;;18.80;99.90;;;;;;4139314;28;19968;-75
2022/09/08 08:32:27;;;;;;;;;;;18.80;99.90;;;;;;4141593;28;19909;-78
2022/09/08 08:34:29;;;;;;;;;;;18.90;99.90;;;;;;4139903;28;19967;-76
2022/09/08 08:36:31;;;;;;;;;;;18.90;99.90;;;;;;4136258;28;19924;-76
2022/09/08 08:38:38;;;;;;;;;;;18.90;99.90;;;;;;4137822;28;19921;-75
2022/09/08 08:40:53;;;;;;;;;;;19.00;99.90;;;;;;4141706;28;19918;-73
2022/09/08 08:43:19;;;;;;;;;;;19.00;99.90;;;;;;4142231;28;20006;-75
2022/09/08 08:45:32;;;;;;;;;;;19.00;99.90;;;;;;4137539;28;19925;-75
2022/09/08 08:48:05;;;;;;;;;;;18.90;99.90;;;;;;4143620;28;19909;-78
2022/09/08 08:50:18;;;;;;;;;;;18.90;99.90;;;;;;4108148;28;19909;-72
2022/09/08 08:52:37;;;;;;;;;;;18.90;99.90;;;;;;4138234;28;19910;-74
2022/09/08 08:54:55;;;;;;;;;;;19.10;99.90;;;;;;4140983;28;20019;-75
2022/09/08 08:57:07;;;;;;;;;;;19.10;99.90;;;;;;4142347;28;19960;-73
2022/09/08 08:59:17;;;;;;;;;;;19.10;99.90;;;;;;4139675;28;19928;-75
2022/09/08 09:01:33;;;;;;;;;;;19.00;99.90;;;;;;4138642;28;19925;-75
2022/09/08 09:03:39;;;;;;;;;;;19.10;99.90;;;;;;4139888;28;19917;-75
2022/09/08 09:05:39;;;;;;;;;;;19.10;99.90;;;;;;4137103;28;19922;-72
2022/09/08 09:07:58;;;;;;;;;;;19.20;99.90;;;;;;4141554;28;20325;-74
2022/09/08 09:10:14;;;;;;;;;;;19.30;99.90;;;;;;4138646;28;19917;-75
2022/09/08 09:12:15;;;;;;;;;;;19.30;99.90;;;;;;4143841;28;19909;-76
2022/09/08 09:14:18;;;;;;;;;;;19.40;99.90;;;;;;4142696;28;19917;-72
2022/09/08 09:16:33;;;;;;;;;;;19.40;99.90;;;;;;4142796;28;20316;-74
2022/09/08 09:19:00;;;;;;;;;;;19.50;99.90;;;;;;4142966;28;19917;-73
2022/09/08 09:21:07;;;;;;;;;;;19.50;99.90;;;;;;4140870;28;20000;-74
2022/09/08 09:23:20;;;;;;;;;;;19.50;99.90;;;;;;4143077;28;20008;-73
2022/09/08 09:25:34;;;;;;;;;;;19.60;99.90;;;;;;4140110;28;19909;-73
2022/09/08 09:27:56;;;;;;;;;;;19.70;99.90;;;;;;4142343;28;19920;-73
2022/09/08 09:30:04;;;;;;;;;;;19.70;99.90;;;;;;4140698;28;19995;-72
2022/09/08 09:32:14;;;;;;;;;;;19.70;99.90;;;;;;4138592;28;19931;-72
2022/09/08 09:34:14;;;;;;;;;;;19.70;99.90;;;;;;4136217;28;19917;-70
2022/09/08 09:36:20;;;;;;;;;;;19.70;99.90;;;;;;4139239;28;20281;-69
2022/09/08 09:38:39;;;;;;;;;;;19.80;99.90;;;;;;4140660;28;19917;-69
2022/09/08 09:41:03;;;;;;;;;;;19.80;99.90;;;;;;4139975;28;19913;-69
2022/09/08 09:43:19;;;;;;;;;;;20.00;99.90;;;;;;4141740;28;19909;-70
2022/09/08 09:45:38;;;;;;;;;;;20.10;99.90;;;;;;4140171;28;19953;-68
2022/09/08 09:47:54;;;;;;;;;;;20.10;99.90;;;;;;4142217;28;20332;-68
2022/09/08 09:50:04;;;;;;;;;;;20.20;99.90;;;;;;4139619;28;19909;-70
2022/09/08 09:52:14;;;;;;;;;;;20.30;99.90;;;;;;4141053;28;19925;-69
2022/09/08 09:54:23;;;;;;;;;;;20.40;99.90;;;;;;4141847;28;19914;-67
2022/09/08 09:56:47;;;;;;;;;;;20.40;99.90;;;;;;4140018;28;19918;-69
2022/09/08 09:59:02;;;;;;;;;;;20.50;99.90;;;;;;4132670;28;20288;-68
2022/09/08 10:01:08;;;;;;;;;;;20.60;99.90;;;;;;4141358;28;20424;-69
2022/09/08 10:03:28;;;;;;;;;;;20.70;99.90;;;;;;4141117;28;19909;-66
2022/09/08 10:05:47;;;;;;;;;;;20.70;99.90;;;;;;4140340;28;19952;-68
2022/09/08 10:07:50;;;;;;;;;;;20.80;99.90;;;;;;4139610;28;19963;-67
2022/09/08 10:10:09;;;;;;;;;;;20.90;99.90;;;;;;4140633;28;20012;-68
2022/09/08 10:12:13;;;;;;;;;;;21.00;99.90;;;;;;4140634;28;19948;-66
2022/09/08 10:14:37;;;;;;;;;;;21.00;99.90;;;;;;4140385;28;19917;-67
2022/09/08 10:16:40;;;;;;;;;;;21.00;99.90;;;;;;4141026;28;19918;-68
2022/09/08 10:18:47;;;;;;;;;;;21.10;99.90;;;;;;4139686;28;19917;-67
2022/09/08 10:20:59;;;;;;;;;;;21.10;99.90;;;;;;4139784;28;19910;-67
2022/09/08 10:23:22;;;;;;;;;;;21.30;99.90;;;;;;4139190;28;19924;-68
2022/09/08 10:25:27;;;;;;;;;;;21.30;99.90;;;;;;4131157;28;19918;-69
2022/09/08 10:27:33;;;;;;;;;;;21.20;99.90;;;;;;4139632;28;20338;-68
2022/09/08 10:29:35;;;;;;;;;;;21.20;99.90;;;;;;4143115;28;19924;-68
2022/09/08 10:31:50;;;;;;;;;;;21.30;99.90;;;;;;4142405;28;20262;-68
2022/09/08 10:33:57;;;;;;;;;;;21.30;99.90;;;;;;4140313;28;19959;-68
2022/09/08 10:36:07;;;;;;;;;;;21.30;99.90;;;;;;4138418;28;20396;-67
2022/09/08 10:38:39;;;;;;;;;;;21.30;99.90;;;;;;4139854;28;19917;-68
2022/09/08 10:40:48;;;;;;;;;;;21.30;99.90;;;;;;4139575;28;19910;-67
2022/09/08 10:42:53;;;;;;;;;;;21.30;99.90;;;;;;4140127;28;20047;-67
2022/09/08 10:45:17;;;;;;;;;;;21.30;99.90;;;;;;4142771;28;20023;-67
2022/09/08 10:47:24;;;;;;;;;;;21.30;99.90;;;;;;4140563;28;20000;-67
2022/09/08 10:49:27;;;;;;;;;;;21.20;99.90;;;;;;4141865;28;19996;-68
2022/09/08 10:51:38;;;;;;;;;;;21.20;99.90;;;;;;4141386;28;19918;-67
2022/09/08 10:53:45;;;;;;;;;;;21.30;99.90;;;;;;4139890;28;20428;-67
2022/09/08 10:55:58;;;;;;;;;;;21.30;99.90;;;;;;4141513;28;19924;-67
2022/09/08 10:57:58;;;;;;;;;;;21.30;99.90;;;;;;4142167;28;19916;-67
2022/09/08 10:59:59;;;;;;;;;;;21.30;99.90;;;;;;4139553;28;20410;-67
2022/09/08 11:04:44;;;;;;;1.00;0.65;;;21.40;99.90;;;;;;4160138;28;20396;-66
2022/09/08 11:07:15;;;;;;;1.63;0.80;;;21.40;99.90;;;;;;4137173;28;20049;-65
2022/09/08 11:09:34;;;;;;;1.92;0.80;;;21.50;99.90;;;;;;4136698;28;20511;-64
2022/09/08 11:12:05;;;;;;;2.58;1.00;;;21.60;99.90;;;;;;4148136;28;20045;-64
2022/09/08 11:14:39;;;;;;;1.52;0.60;;;21.60;99.90;;;;;;4140510;28;20034;-65
2022/09/08 11:17:27;;;;;;;1.60;0.80;;;21.70;99.90;;;;;;4137243;28;20022;-64
2022/09/08 11:19:48;;;;;;;1.52;0.75;;;21.70;99.90;;;;;;4151229;28;20160;-64
2022/09/08 11:22:29;;;;;;;0.43;0.40;;;21.80;99.90;;;;;;4125206;28;20046;-65
2022/09/08 11:24:47;;;;;;;1.88;0.70;;;21.80;99.90;;;;;;4139431;28;20045;-64
2022/09/08 11:27:12;;;;;;;2.75;1.02;;;21.80;99.90;;;;;;4124240;28;20047;-65
2022/09/08 11:29:17;;;;;;;2.53;0.68;;;21.80;99.90;;;;;;4150602;28;20038;-64
2022/09/08 11:31:54;;;;;;;2.08;0.65;;;21.90;99.90;;;;;;4133083;28;20117;-65
2022/09/08 11:34:37;;;;;;;3.25;0.88;;;22.00;99.90;;;;;;4116941;28;20034;-63
2022/09/08 11:37:08;;;;;;;2.50;0.90;;;22.00;99.90;;;;;;4151739;28;21089;-64
2022/09/08 11:39:52;;;;;;;1.88;0.80;;;22.10;99.90;;;;;;4134399;28;20483;-67
2022/09/08 11:42:25;;;;;;;3.15;0.70;;;22.20;99.90;;;;;;4135007;28;20068;-64
2022/09/08 11:44:43;;;;;;;2.80;0.90;;;22.30;99.90;;;;;;4135108;28;20046;-64
2022/09/08 11:46:58;;;;;;;1.63;0.70;;;22.40;99.90;;;;;;4138039;28;20026;-64
2022/09/08 11:49:29;;;;;;;2.72;0.90;;;22.50;99.90;;;;;;4126910;28;20038;-64
2022/09/08 11:51:52;;;;;;;1.13;0.60;;;22.60;99.90;;;;;;4138771;28;20051;-64
2022/09/08 11:54:11;;;;;;;;;;;22.60;99.90;;;;;;4138426;28;20108;-64
2022/09/08 11:56:17;;;;;;;2.67;1.02;;;22.60;99.90;;;;;;4132709;28;20428;-65
2022/09/08 11:58:42;;;;;;;3.00;0.90;;;22.60;99.90;;;;;;4135147;28;20525;-65
2022/09/08 12:00:57;;;;;;;2.67;0.73;;;22.70;99.90;;;;;;4138285;28;20411;-64
2022/09/08 12:03:16;;;;;;;2.85;0.70;;;22.80;99.90;;;;;;4135792;28;20204;-64
2022/09/08 12:05:55;;;;;;;2.67;0.88;;;22.80;99.90;;;;;;4131518;28;20537;-64
2022/09/08 12:08:08;;;;;;;2.83;0.68;;;22.80;99.90;;;;;;4131099;28;20041;-64
2022/09/08 12:10:39;;;;;;;1.63;0.90;;;22.90;99.90;;;;;;4125677;28;20026;-64
2022/09/08 12:13:06;;;;;;;1.42;0.63;;;22.90;99.90;;;;;;4110270;28;20036;-65
2022/09/08 12:15:43;;;;;;;2.95;1.13;;;22.90;99.90;;;;;;4130815;28;20483;-64
2022/09/08 12:18:19;;;;;;;1.67;0.63;;;23.00;99.90;;;;;;4117547;28;20110;-64
2022/09/08 12:20:39;;;;;;;1.88;0.88;;;22.90;99.90;;;;;;4121757;28;20018;-64
2022/09/08 12:22:52;;;;;;;1.55;0.80;;;23.00;99.90;;;;;;4112950;28;20031;-65